Time;durP1;ratioP1;P1;durP2;ratioP2;P2;SDS_P1;SDS_P2;PMS_P1;PMS_P2;Temp;Humidity;BMP_temperature;BMP_pressure;BME280_temperature;BME280_humidity;BME280_pressure;Samples;Min_cycle;Max_cycle;Signal;HPM_P1;HPM_P2
2020/12/02 00:01:33;;;;;;;64.45;50.38;;;;;;;;;;5096921;28;20882;-92
2020/12/02 00:04:02;;;;;;;60.15;46.22;;;;;;;;;;5098092;28;20360;-91
2020/12/02 00:06:29;;;;;;;60.38;46.28;;;;;;;;;;5099672;28;20464;-90
2020/12/02 00:09:08;;;;;;;58.25;46.67;;;;;;;;;;5096039;28;20376;-91
2020/12/02 00:11:35;;;;;;;59.13;44.85;;;;;;;;;;5097104;28;20360;-92
2020/12/02 00:14:01;;;;;;;67.00;50.28;;;;;;;;;;5096641;28;20349;-92
2020/12/02 00:16:28;;;;;;;65.75;50.78;;;;;;;;;;5096798;28;20365;-92
2020/12/02 00:18:55;;;;;;;61.05;48.80;;;;;;;;;;5096648;28;20715;-92
2020/12/02 00:21:21;;;;;;;73.00;55.83;;;;;;;;;;5096260;28;20394;-92
2020/12/02 00:23:47;;;;;;;71.75;53.03;;;;;;;;;;5096308;28;20369;-91
2020/12/02 00:26:17;;;;;;;64.35;49.67;;;;;;;;;;5096527;28;20419;-92
2020/12/02 00:28:43;;;;;;;65.45;51.33;;;;;;;;;;5096256;28;20421;-91
2020/12/02 00:31:09;;;;;;;70.67;53.70;;;;;;;;;;5086939;28;20439;-92
2020/12/02 00:33:36;;;;;;;65.18;49.88;;;;;;;;;;5075793;28;20837;-91
2020/12/02 00:36:02;;;;;;;75.53;56.13;;;;;;;;;;5076086;28;20370;-91
2020/12/02 00:38:28;;;;;;;75.05;56.45;;;;;;;;;;5075589;28;20411;-91
2020/12/02 00:40:54;;;;;;;80.18;57.70;;;;;;;;;;5074933;28;20393;-91
2020/12/02 00:43:22;;;;;;;70.18;54.53;;;;;;;;;;5074325;28;20366;-92
2020/12/02 00:45:49;;;;;;;68.13;54.15;;;;;;;;;;5074582;28;20370;-91
2020/12/02 00:48:16;;;;;;;69.85;53.53;;;;;;;;;;5077013;28;20456;-91
2020/12/02 00:50:42;;;;;;;72.93;55.85;;;;;;;;;;5075595;28;20706;-90
2020/12/02 00:53:11;;;;;;;87.53;62.13;;;;;;;;;;5075636;28;20446;-91
2020/12/02 00:55:38;;;;;;;78.15;58.90;;;;;;;;;;5075435;28;20465;-92
2020/12/02 00:58:06;;;;;;;74.30;56.92;;;;;;;;;;5076730;28;20809;-91
2020/12/02 01:00:35;;;;;;;69.55;53.90;;;;;;;;;;5075007;28;20402;-92
2020/12/02 01:03:05;;;;;;;81.00;58.92;;;;;;;;;;5075173;28;20469;-91
2020/12/02 01:05:35;;;;;;;75.70;56.97;;;;;;;;;;5074940;28;20844;-93
2020/12/02 01:08:16;;;;;;;68.68;53.10;;;;;;;;;;5076504;28;20361;-92
2020/12/02 01:10:42;;;;;;;81.55;60.65;;;;;;;;;;5074837;28;20362;-92
2020/12/02 01:13:08;;;;;;;80.68;60.60;;;;;;;;;;5076642;28;20362;-91
2020/12/02 01:15:35;;;;;;;80.53;59.05;;;;;;;;;;5075265;28;20370;-91
2020/12/02 01:18:27;;;;;;;71.05;55.78;;;;;;;;;;5075526;28;20385;-90
2020/12/02 01:20:57;;;;;;;70.53;55.10;;;;;;;;;;5071854;28;20397;-91
2020/12/02 01:23:23;;;;;;;72.70;56.00;;;;;;;;;;5074834;28;20372;-92
2020/12/02 01:25:51;;;;;;;71.85;54.40;;;;;;;;;;5076411;28;20704;-91
2020/12/02 01:28:23;;;;;;;65.90;51.55;;;;;;;;;;5074969;28;20914;-91
2020/12/02 01:30:49;;;;;;;64.80;51.70;;;;;;;;;;5074790;28;20392;-92
2020/12/02 01:33:16;;;;;;;67.20;52.45;;;;;;;;;;5074670;28;20402;-91
2020/12/02 01:35:44;;;;;;;71.13;53.67;;;;;;;;;;5075217;28;20366;-92
2020/12/02 01:38:11;;;;;;;65.70;51.97;;;;;;;;;;5074888;28;20392;-91
2020/12/02 01:40:37;;;;;;;73.68;54.83;;;;;;;;;;5074588;28;20401;-91
2020/12/02 01:43:05;;;;;;;79.82;58.30;;;;;;;;;;5074563;28;20367;-91
2020/12/02 01:45:34;;;;;;;74.05;57.38;;;;;;;;;;5074775;28;20367;-90
2020/12/02 01:48:00;;;;;;;81.63;58.85;;;;;;;;;;5074585;28;20374;-92
2020/12/02 01:50:45;;;;;;;75.67;57.40;;;;;;;;;;5074708;28;20981;-91
2020/12/02 01:53:11;;;;;;;78.38;58.97;;;;;;;;;;5074870;28;20358;-91
2020/12/02 01:55:43;;;;;;;70.63;54.78;;;;;;;;;;5074559;28;20401;-91
2020/12/02 01:58:19;;;;;;;68.25;54.40;;;;;;;;;;5074984;28;20361;-92
2020/12/02 02:00:49;;;;;;;79.40;57.70;;;;;;;;;;5074401;28;20398;-91
2020/12/02 02:03:16;;;;;;;71.65;54.33;;;;;;;;;;5074200;28;20390;-91
2020/12/02 02:05:48;;;;;;;71.70;53.58;;;;;;;;;;5074369;28;20369;-92
2020/12/02 02:08:14;;;;;;;75.95;56.28;;;;;;;;;;5074761;28;20394;-92
2020/12/02 02:10:42;;;;;;;67.80;53.47;;;;;;;;;;5074558;28;20509;-92
2020/12/02 02:13:14;;;;;;;75.10;57.20;;;;;;;;;;5074718;28;20366;-91
2020/12/02 02:15:54;;;;;;;75.20;55.25;;;;;;;;;;5074542;28;20358;-92
2020/12/02 02:18:22;;;;;;;68.63;53.00;;;;;;;;;;5078636;28;20844;-93
2020/12/02 02:20:53;;;;;;;71.78;55.65;;;;;;;;;;5078440;28;20935;-92
2020/12/02 02:23:19;;;;;;;80.03;58.03;;;;;;;;;;5079391;28;20373;-92
2020/12/02 02:25:54;;;;;;;74.45;58.10;;;;;;;;;;5078432;28;20365;-92
2020/12/02 02:28:24;;;;;;;89.43;65.20;;;;;;;;;;5078522;28;20370;-92
2020/12/02 02:30:50;;;;;;;91.95;64.03;;;;;;;;;;5078226;28;20358;-91
2020/12/02 02:33:17;;;;;;;88.43;64.20;;;;;;;;;;5078037;28;20366;-91
2020/12/02 02:35:43;;;;;;;86.75;62.67;;;;;;;;;;5078301;28;20384;-91
2020/12/02 02:38:09;;;;;;;85.22;62.30;;;;;;;;;;5077936;28;20384;-91
2020/12/02 02:40:35;;;;;;;89.43;63.63;;;;;;;;;;5077934;28;20944;-91
2020/12/02 02:43:09;;;;;;;106.72;73.05;;;;;;;;;;5078113;28;20382;-91
2020/12/02 02:45:35;;;;;;;92.20;66.97;;;;;;;;;;5079313;28;20389;-91
2020/12/02 02:48:06;;;;;;;95.88;67.68;;;;;;;;;;5078287;28;20369;-91
2020/12/02 02:50:32;;;;;;;104.13;69.25;;;;;;;;;;5077937;28;20961;-91
2020/12/02 02:53:02;;;;;;;88.43;63.88;;;;;;;;;;5079132;28;20488;-91
2020/12/02 02:55:29;;;;;;;84.47;61.38;;;;;;;;;;5077874;28;20431;-91
2020/12/02 02:57:56;;;;;;;83.32;60.60;;;;;;;;;;5077707;28;20454;-92
2020/12/02 03:00:27;;;;;;;90.32;63.75;;;;;;;;;;5077337;28;20400;-91
2020/12/02 03:02:54;;;;;;;82.80;61.33;;;;;;;;;;5077851;28;20388;-91
2020/12/02 03:05:20;;;;;;;87.05;62.67;;;;;;;;;;5077879;28;20860;-91
2020/12/02 03:07:51;;;;;;;95.67;66.73;;;;;;;;;;5077494;28;20374;-91
2020/12/02 03:10:20;;;;;;;101.90;70.32;;;;;;;;;;5077633;28;20406;-91
2020/12/02 03:12:50;;;;;;;88.87;63.23;;;;;;;;;;5081564;28;20449;-91
2020/12/02 03:15:19;;;;;;;82.70;61.63;;;;;;;;;;5077732;28;20362;-91
2020/12/02 03:17:46;;;;;;;81.80;61.53;;;;;;;;;;5077584;28;20433;-92
2020/12/02 03:20:26;;;;;;;80.40;58.80;;;;;;;;;;5078286;28;20438;-94
2020/12/02 03:22:55;;;;;;;76.80;58.13;;;;;;;;;;5093431;28;20377;-94
2020/12/02 03:25:24;;;;;;;80.93;60.33;;;;;;;;;;5093637;28;20374;-94
2020/12/02 03:27:58;;;;;;;76.53;58.73;;;;;;;;;;5091234;28;20452;-94
2020/12/02 03:30:25;;;;;;;79.15;57.78;;;;;;;;;;5092698;28;20406;-93
2020/12/02 03:32:51;;;;;;;84.90;61.20;;;;;;;;;;5092048;28;20366;-93
2020/12/02 03:35:23;;;;;;;76.70;58.78;;;;;;;;;;5083365;28;20362;-94
2020/12/02 03:37:49;;;;;;;76.28;57.90;;;;;;;;;;5078021;28;20384;-93
2020/12/02 03:40:21;;;;;;;83.87;62.13;;;;;;;;;;5079612;28;20489;-93
2020/12/02 03:42:48;;;;;;;83.90;60.42;;;;;;;;;;5089100;28;20371;-93
2020/12/02 03:45:17;;;;;;;86.45;62.17;;;;;;;;;;5093586;28;20366;-94
2020/12/02 03:47:43;;;;;;;76.13;57.58;;;;;;;;;;5085367;28;20378;-93
2020/12/02 03:50:10;;;;;;;72.40;55.50;;;;;;;;;;5086258;28;20378;-93
2020/12/02 03:52:36;;;;;;;81.63;59.03;;;;;;;;;;5079244;28;20374;-93
2020/12/02 03:55:05;;;;;;;74.57;55.85;;;;;;;;;;5077830;28;20884;-93
2020/12/02 03:57:38;;;;;;;78.50;57.95;;;;;;;;;;5077481;28;20377;-93
2020/12/02 04:00:06;;;;;;;78.90;57.95;;;;;;;;;;5081944;28;20370;-92
2020/12/02 04:02:32;;;;;;;71.25;54.92;;;;;;;;;;5081709;28;20374;-93
2020/12/02 04:04:58;;;;;;;69.78;52.00;;;;;;;;;;5077320;28;20449;-91
2020/12/02 04:07:24;;;;;;;73.43;54.63;;;;;;;;;;5076477;28;20853;-92
2020/12/02 04:09:51;;;;;;;76.40;55.92;;;;;;;;;;5075244;28;20924;-91
2020/12/02 04:12:17;;;;;;;64.88;50.83;;;;;;;;;;5075849;28;20366;-91
2020/12/02 04:14:45;;;;;;;65.15;49.90;;;;;;;;;;5076376;28;20369;-91
2020/12/02 04:17:11;;;;;;;63.17;49.50;;;;;;;;;;5076026;28;20887;-91
2020/12/02 04:19:37;;;;;;;74.88;54.85;;;;;;;;;;5076264;28;20362;-91
2020/12/02 04:22:04;;;;;;;68.65;52.83;;;;;;;;;;5076332;28;20394;-91
2020/12/02 04:24:30;;;;;;;64.03;49.92;;;;;;;;;;5076286;28;20385;-93
2020/12/02 04:26:59;;;;;;;65.88;50.47;;;;;;;;;;5076347;28;20370;-91
2020/12/02 04:29:31;;;;;;;64.57;49.67;;;;;;;;;;5076497;28;20366;-91
2020/12/02 04:32:00;;;;;;;64.85;49.22;;;;;;;;;;5075905;28;20945;-92
2020/12/02 04:34:26;;;;;;;66.90;51.13;;;;;;;;;;5076143;28;20408;-92
2020/12/02 04:36:53;;;;;;;66.47;51.58;;;;;;;;;;5076017;28;20388;-90
2020/12/02 04:39:19;;;;;;;62.17;48.20;;;;;;;;;;5075599;28;20366;-91
2020/12/02 04:41:45;;;;;;;58.22;45.25;;;;;;;;;;5076662;28;20408;-92
2020/12/02 04:44:15;;;;;;;53.05;44.63;;;;;;;;;;5075552;28;20370;-92
2020/12/02 04:46:44;;;;;;;56.38;45.42;;;;;;;;;;5074844;28;20375;-92
2020/12/02 04:49:16;;;;;;;64.38;49.20;;;;;;;;;;5074589;28;20450;-91
2020/12/02 04:51:42;;;;;;;63.58;49.53;;;;;;;;;;5075694;28;20412;-92
2020/12/02 04:54:09;;;;;;;76.45;56.30;;;;;;;;;;5075701;28;20441;-91
2020/12/02 04:56:36;;;;;;;69.32;53.00;;;;;;;;;;5075578;28;20366;-91
2020/12/02 04:59:02;;;;;;;68.53;52.30;;;;;;;;;;5085046;28;20358;-94
2020/12/02 05:01:36;;;;;;;69.00;52.67;;;;;;;;;;5093390;28;20395;-94
2020/12/02 05:04:02;;;;;;;67.22;52.38;;;;;;;;;;5082095;28;20382;-93
2020/12/02 05:06:31;;;;;;;59.55;47.83;;;;;;;;;;5091853;28;20427;-94
2020/12/02 05:09:15;;;;;;;59.92;46.70;;;;;;;;;;5090765;28;20370;-93
2020/12/02 05:11:45;;;;;;;60.80;47.97;;;;;;;;;;5087878;28;20370;-93
2020/12/02 05:14:17;;;;;;;68.22;54.28;;;;;;;;;;5078896;28;20401;-93
2020/12/02 05:16:46;;;;;;;67.33;52.97;;;;;;;;;;5080101;28;20495;-94
2020/12/02 05:19:21;;;;;;;63.05;51.35;;;;;;;;;;5079454;28;20438;-94
2020/12/02 05:21:50;;;;;;;68.00;51.42;;;;;;;;;;5078584;28;20409;-93
2020/12/02 05:24:18;;;;;;;61.78;49.05;;;;;;;;;;5086008;28;20859;-93
2020/12/02 05:26:47;;;;;;;62.43;49.70;;;;;;;;;;5075515;28;20380;-93
2020/12/02 05:29:25;;;;;;;67.55;51.97;;;;;;;;;;5074894;28;20366;-93
2020/12/02 05:31:59;;;;;;;63.78;49.10;;;;;;;;;;5075234;28;20690;-92
2020/12/02 05:34:28;;;;;;;62.45;48.58;;;;;;;;;;5078245;28;20370;-93
2020/12/02 05:36:55;;;;;;;57.55;46.80;;;;;;;;;;5076645;28;20412;-93
2020/12/02 05:39:41;;;;;;;55.15;44.53;;;;;;;;;;5090284;28;20378;-94
2020/12/02 05:42:13;;;;;;;57.60;45.35;;;;;;;;;;5089298;28;20433;-93
2020/12/02 05:44:41;;;;;;;57.73;46.40;;;;;;;;;;5090254;28;20381;-89
2020/12/02 05:47:11;;;;;;;58.00;46.03;;;;;;;;;;5074055;28;20373;-88
2020/12/02 05:49:46;;;;;;;56.87;45.00;;;;;;;;;;5075864;28;20366;-89
2020/12/02 05:52:19;;;;;;;53.47;43.72;;;;;;;;;;5073423;28;20370;-83
2020/12/02 05:54:47;;;;;;;49.95;41.70;;;;;;;;;;5071542;28;20358;-83
2020/12/02 05:57:18;;;;;;;55.63;43.90;;;;;;;;;;5071584;28;20439;-90
2020/12/02 05:59:48;;;;;;;56.00;44.42;;;;;;;;;;5076177;28;20433;-91
2020/12/02 06:02:17;;;;;;;55.70;45.97;;;;;;;;;;5066805;28;20413;-91
2020/12/02 06:04:53;;;;;;;61.17;46.80;;;;;;;;;;5057451;28;20376;-92
2020/12/02 06:07:20;;;;;;;60.10;47.37;;;;;;;;;;5054191;28;20943;-92
2020/12/02 06:09:55;;;;;;;57.33;45.53;;;;;;;;;;5054767;28;20419;-91
2020/12/02 06:12:22;;;;;;;65.60;50.38;;;;;;;;;;5063736;28;20425;-91
2020/12/02 06:14:49;;;;;;;59.10;47.35;;;;;;;;;;5067213;28;20367;-84
2020/12/02 06:17:28;;;;;;;65.07;51.17;;;;;;;;;;5060908;28;20383;-90
2020/12/02 06:19:55;;;;;;;65.83;50.83;;;;;;;;;;5067963;28;20377;-89
2020/12/02 06:22:31;;;;;;;58.90;46.22;;;;;;;;;;5063812;28;20368;-90
2020/12/02 06:24:57;;;;;;;50.70;41.20;;;;;;;;;;5069948;28;20366;-91
2020/12/02 06:27:36;;;;;;;55.00;43.27;;;;;;;;;;5062038;28;20427;-90
2020/12/02 06:30:07;;;;;;;58.67;47.97;;;;;;;;;;5063509;28;20368;-91
2020/12/02 06:32:33;;;;;;;60.93;47.10;;;;;;;;;;5062610;28;20855;-90
2020/12/02 06:35:16;;;;;;;63.92;49.00;;;;;;;;;;5059433;28;20370;-91
2020/12/02 06:37:42;;;;;;;61.10;46.20;;;;;;;;;;5066331;28;20376;-88
2020/12/02 06:40:13;;;;;;;65.63;49.03;;;;;;;;;;5061329;28;20379;-89
2020/12/02 06:42:40;;;;;;;55.92;46.17;;;;;;;;;;5062898;28;20383;-89
2020/12/02 06:45:29;;;;;;;59.15;47.47;;;;;;;;;;5060945;28;20400;-90
2020/12/02 06:47:57;;;;;;;59.05;46.20;;;;;;;;;;5061671;28;20878;-91
2020/12/02 06:50:25;;;;;;;62.35;47.05;;;;;;;;;;5061555;28;20378;-91
2020/12/02 06:53:12;;;;;;;55.00;44.07;;;;;;;;;;5064613;28;20861;-91
2020/12/02 06:55:39;;;;;;;51.27;42.80;;;;;;;;;;5061221;28;20372;-88
2020/12/02 06:58:13;;;;;;;53.28;42.83;;;;;;;;;;5059486;28;20372;-90
2020/12/02 07:00:50;;;;;;;53.05;43.08;;;;;;;;;;5060944;28;20935;-91
2020/12/02 07:03:30;;;;;;;53.42;42.70;;;;;;;;;;5054214;28;20461;-92
2020/12/02 07:06:15;;;;;;;59.05;46.90;;;;;;;;;;5058643;28;20773;-91
2020/12/02 07:08:42;;;;;;;56.50;44.30;;;;;;;;;;5077024;28;20374;-89
2020/12/02 07:11:09;;;;;;;55.00;43.38;;;;;;;;;;5078426;28;20711;-89
2020/12/02 07:13:38;;;;;;;58.78;45.85;;;;;;;;;;5080307;28;20384;-90
2020/12/02 07:16:25;;;;;;;56.20;44.50;;;;;;;;;;5076144;28;20445;-94
2020/12/02 07:19:01;;;;;;;59.17;45.73;;;;;;;;;;5084266;28;20814;-88
2020/12/02 07:21:33;;;;;;;59.55;47.35;;;;;;;;;;5081248;28;20454;-92
2020/12/02 07:24:00;;;;;;;56.57;45.13;;;;;;;;;;5082769;28;20407;-88
2020/12/02 07:26:26;;;;;;;59.88;45.72;;;;;;;;;;5076460;28;20370;-85
2020/12/02 07:29:06;;;;;;;51.00;42.88;;;;;;;;;;5514176;22;20409;-89
2020/12/02 07:31:35;;;;;;;58.63;45.63;;;;;;;;;;5084369;28;20382;-90
2020/12/02 07:34:04;;;;;;;54.13;43.83;;;;;;;;;;5045506;28;20496;-87
2020/12/02 07:36:40;;;;;;;60.00;46.70;;;;;;;;;;5073097;28;20372;-90
2020/12/02 07:39:23;;;;;;;54.85;43.35;;;;;;;;;;5069271;28;20416;-94
2020/12/02 07:41:55;;;;;;;57.85;46.05;;;;;;;;;;5068008;28;20499;-86
2020/12/02 07:44:21;;;;;;;57.20;45.95;;;;;;;;;;5059920;28;20386;-94
2020/12/02 07:46:51;;;;;;;55.33;44.75;;;;;;;;;;5077558;28;20385;-91
2020/12/02 07:49:18;;;;;;;51.97;43.13;;;;;;;;;;5044884;28;20422;-91
2020/12/02 07:52:01;;;;;;;54.10;44.90;;;;;;;;;;5069695;28;20443;-92
2020/12/02 07:54:29;;;;;;;51.80;43.40;;;;;;;;;;5083124;28;20359;-91
2020/12/02 07:56:55;;;;;;;55.80;45.90;;;;;;;;;;5081274;28;20377;-94
2020/12/02 07:59:24;;;;;;;59.42;46.90;;;;;;;;;;5074996;28;20371;-92
2020/12/02 08:01:53;;;;;;;59.88;46.03;;;;;;;;;;5065486;28;20941;-91
2020/12/02 08:04:23;;;;;;;54.33;43.95;;;;;;;;;;5062835;28;20363;-90
2020/12/02 08:06:56;;;;;;;56.88;44.83;;;;;;;;;;5064997;28;20375;-90
2020/12/02 08:09:22;;;;;;;57.25;45.35;;;;;;;;;;5073746;28;20367;-92
2020/12/02 08:11:52;;;;;;;55.30;44.95;;;;;;;;;;5057775;28;20376;-82
2020/12/02 08:14:25;;;;;;;54.55;43.92;;;;;;;;;;5058907;28;20372;-83
2020/12/02 08:16:52;;;;;;;56.97;45.83;;;;;;;;;;5073928;28;20374;-89
2020/12/02 08:19:28;;;;;;;54.95;44.75;;;;;;;;;;5049753;28;20444;-92
2020/12/02 08:21:55;;;;;;;56.15;45.35;;;;;;;;;;5069535;28;20395;-90
2020/12/02 08:24:33;;;;;;;60.00;47.33;;;;;;;;;;5056526;28;20375;-88
2020/12/02 08:27:01;;;;;;;61.58;48.15;;;;;;;;;;5077056;28;20379;-88
2020/12/02 08:29:29;;;;;;;55.07;45.33;;;;;;;;;;5048563;28;20395;-92
2020/12/02 08:32:07;;;;;;;67.78;50.58;;;;;;;;;;5057779;28;20396;-92
2020/12/02 08:34:35;;;;;;;60.63;47.38;;;;;;;;;;5059265;28;20369;-91
2020/12/02 08:37:16;;;;;;;53.88;43.72;;;;;;;;;;5058078;28;20368;-88
2020/12/02 08:39:44;;;;;;;62.78;50.58;;;;;;;;;;5054525;28;20439;-89
2020/12/02 08:42:10;;;;;;;66.10;50.90;;;;;;;;;;5075304;28;20475;-90
2020/12/02 08:44:36;;;;;;;75.53;56.67;;;;;;;;;;5075929;28;20752;-83
2020/12/02 08:47:09;;;;;;;73.70;55.95;;;;;;;;;;5074682;28;20904;-83
2020/12/02 08:49:36;;;;;;;74.40;57.00;;;;;;;;;;5073976;28;20878;-84
2020/12/02 08:52:03;;;;;;;82.32;61.75;;;;;;;;;;5074256;28;20813;-83
2020/12/02 08:54:29;;;;;;;80.07;61.30;;;;;;;;;;5074335;28;20354;-87
2020/12/02 08:57:06;;;;;;;81.30;60.65;;;;;;;;;;5058660;28;20362;-87
2020/12/02 08:59:34;;;;;;;83.13;62.13;;;;;;;;;;5076194;28;20713;-87
2020/12/02 09:02:14;;;;;;;85.27;65.57;;;;;;;;;;5076322;28;20410;-89
2020/12/02 09:04:41;;;;;;;89.53;65.78;;;;;;;;;;5076055;28;20358;-88
2020/12/02 09:07:07;;;;;;;82.60;63.87;;;;;;;;;;5076312;28;20505;-89
2020/12/02 09:09:33;;;;;;;79.65;61.83;;;;;;;;;;5075106;28;20425;-88
2020/12/02 09:11:59;;;;;;;77.88;59.97;;;;;;;;;;5057652;28;20409;-90
2020/12/02 09:14:25;;;;;;;76.65;59.08;;;;;;;;;;5076826;28;20415;-83
2020/12/02 09:16:52;;;;;;;79.88;61.35;;;;;;;;;;5053429;28;20356;-89
2020/12/02 09:19:18;;;;;;;75.43;58.90;;;;;;;;;;5058489;28;20480;-89
2020/12/02 09:21:50;;;;;;;77.97;60.03;;;;;;;;;;5055926;28;20400;-89
2020/12/02 09:24:17;;;;;;;78.93;59.70;;;;;;;;;;5060376;28;20396;-91
2020/12/02 09:26:43;;;;;;;83.72;61.28;;;;;;;;;;5065646;28;20355;-91
2020/12/02 09:29:15;;;;;;;81.47;61.88;;;;;;;;;;5073210;28;20384;-90
2020/12/02 09:31:42;;;;;;;75.55;59.00;;;;;;;;;;5070578;28;20394;-91
2020/12/02 09:34:11;;;;;;;81.32;61.97;;;;;;;;;;5062668;28;20398;-88
2020/12/02 09:36:40;;;;;;;80.97;62.80;;;;;;;;;;5081507;28;20396;-91
2020/12/02 09:39:07;;;;;;;81.13;61.00;;;;;;;;;;5059605;28;20366;-84
2020/12/02 09:42:02;;;;;;;84.20;63.55;;;;;;;;;;5072732;28;20485;-84
2020/12/02 09:44:30;;;;;;;78.35;59.22;;;;;;;;;;5051155;28;20872;-85
2020/12/02 09:46:58;;;;;;;78.75;60.92;;;;;;;;;;5053505;28;20908;-85
2020/12/02 09:49:32;;;;;;;78.30;61.90;;;;;;;;;;5071761;28;20358;-86
2020/12/02 09:52:10;;;;;;;80.30;61.08;;;;;;;;;;5055980;28;20386;-87
2020/12/02 09:54:40;;;;;;;79.15;61.03;;;;;;;;;;5057473;28;20813;-86
2020/12/02 09:57:12;;;;;;;82.47;61.80;;;;;;;;;;5056100;28;20462;-87
2020/12/02 09:59:39;;;;;;;74.50;57.53;;;;;;;;;;5074402;28;20350;-87
2020/12/02 10:02:17;;;;;;;79.95;60.95;;;;;;;;;;5056119;28;20900;-87
2020/12/02 10:05:00;;;;;;;79.93;61.93;;;;;;;;;;5056065;28;20371;-87
2020/12/02 10:07:35;;;;;;;78.93;63.38;;;;;;;;;;5074673;28;20424;-87
2020/12/02 10:10:08;;;;;;;81.88;63.70;;;;;;;;;;5055012;28;20385;-87
2020/12/02 10:12:48;;;;;;;78.80;61.30;;;;;;;;;;5072931;28;20455;-87
2020/12/02 10:15:14;;;;;;;75.95;60.35;;;;;;;;;;5055552;28;20420;-87
2020/12/02 10:17:59;;;;;;;83.50;63.10;;;;;;;;;;5055326;28;20477;-88
2020/12/02 10:20:30;;;;;;;79.17;62.00;;;;;;;;;;5054485;28;20394;-86
2020/12/02 10:23:15;;;;;;;74.97;59.13;;;;;;;;;;5072690;28;20366;-93
2020/12/02 10:25:57;;;;;;;76.35;59.15;;;;;;;;;;5073730;28;20395;-91
2020/12/02 10:28:28;;;;;;;75.38;59.42;;;;;;;;;;5073780;28;20382;-90
2020/12/02 10:31:02;;;;;;;73.55;58.58;;;;;;;;;;5055858;28;20405;-90
2020/12/02 10:33:42;;;;;;;82.13;63.25;;;;;;;;;;5072674;28;20370;-89
2020/12/02 10:36:09;;;;;;;79.63;61.75;;;;;;;;;;5055945;28;20416;-89
2020/12/02 10:38:39;;;;;;;81.88;63.25;;;;;;;;;;5076392;28;20485;-89
2020/12/02 10:41:23;;;;;;;83.90;64.20;;;;;;;;;;5077177;28;20397;-89
2020/12/02 10:44:01;;;;;;;82.15;64.90;;;;;;;;;;5059148;28;20388;-90
2020/12/02 10:46:36;;;;;;;80.65;62.28;;;;;;;;;;5058845;28;20465;-90
2020/12/02 10:49:06;;;;;;;78.80;60.65;;;;;;;;;;5077171;28;20407;-89
2020/12/02 10:51:36;;;;;;;78.90;60.60;;;;;;;;;;5077481;28;20376;-89
2020/12/02 10:54:04;;;;;;;81.30;61.47;;;;;;;;;;5077453;28;20875;-90
2020/12/02 10:56:30;;;;;;;76.93;61.60;;;;;;;;;;5077797;28;20373;-90
2020/12/02 10:58:56;;;;;;;77.38;59.13;;;;;;;;;;5073642;28;20371;-89
2020/12/02 11:01:23;;;;;;;80.53;62.17;;;;;;;;;;5058676;28;20391;-89
2020/12/02 11:03:52;;;;;;;78.47;60.37;;;;;;;;;;5045200;28;20406;-89
2020/12/02 11:06:30;;;;;;;77.87;60.80;;;;;;;;;;5064398;28;20465;-89
2020/12/02 11:09:28;;;;;;;78.00;60.72;;;;;;;;;;5084204;28;20473;-86
2020/12/02 11:12:14;;;;;;;80.22;62.08;;;;;;;;;;5064185;28;20370;-90
2020/12/02 11:14:56;;;;;;;73.93;59.50;;;;;;;;;;5060952;28;20365;-91
2020/12/02 11:17:35;;;;;;;79.72;61.30;;;;;;;;;;5079848;28;20441;-89
2020/12/02 11:20:09;;;;;;;79.15;62.25;;;;;;;;;;5075825;28;20372;-87
2020/12/02 11:23:01;;;;;;;76.60;60.33;;;;;;;;;;5052511;28;21067;-89
2020/12/02 11:25:31;;;;;;;82.05;63.22;;;;;;;;;;5051986;28;20383;-89
2020/12/02 11:27:57;;;;;;;78.60;62.03;;;;;;;;;;5074156;28;20475;-87
2020/12/02 11:30:25;;;;;;;78.25;61.00;;;;;;;;;;5076709;28;20398;-89
2020/12/02 11:33:07;;;;;;;79.93;62.00;;;;;;;;;;5069987;28;20375;-85
2020/12/02 11:38:38;;;;;;;81.22;62.65;;;;;;;;;;5077941;28;20413;-88
2020/12/02 11:41:14;;;;;;;81.88;63.20;;;;;;;;;;5052743;28;20395;-87
2020/12/02 11:43:47;;;;;;;81.82;63.40;;;;;;;;;;5057020;28;20854;-90
2020/12/02 11:46:22;;;;;;;79.60;62.60;;;;;;;;;;5050475;28;20372;-88
2020/12/02 11:48:56;;;;;;;87.15;65.40;;;;;;;;;;5070940;28;20431;-88
2020/12/02 11:51:32;;;;;;;81.35;62.72;;;;;;;;;;5066176;28;20390;-89
2020/12/02 11:54:03;;;;;;;81.72;62.83;;;;;;;;;;5077483;28;20366;-88
2020/12/02 11:56:58;;;;;;;80.70;62.30;;;;;;;;;;5074746;28;20374;-90
2020/12/02 11:59:33;;;;;;;79.70;63.45;;;;;;;;;;5041761;28;20368;-87
2020/12/02 12:02:21;;;;;;;78.97;61.90;;;;;;;;;;5057627;28;20400;-90
2020/12/02 12:04:59;;;;;;;81.68;64.40;;;;;;;;;;5060163;28;20499;-89
2020/12/02 12:07:32;;;;;;;76.57;60.28;;;;;;;;;;5040326;28;20470;-89
2020/12/02 12:10:07;;;;;;;81.55;64.63;;;;;;;;;;5058707;28;20910;-89
2020/12/02 12:12:51;;;;;;;80.07;61.87;;;;;;;;;;5061280;28;20522;-87
2020/12/02 12:15:24;;;;;;;76.45;61.38;;;;;;;;;;5059675;28;20384;-87
2020/12/02 12:17:54;;;;;;;78.10;61.78;;;;;;;;;;5048872;28;20428;-86
2020/12/02 12:20:27;;;;;;;74.77;58.83;;;;;;;;;;5061039;28;20374;-88
2020/12/02 12:23:03;;;;;;;73.32;57.10;;;;;;;;;;5045140;28;20453;-89
2020/12/02 12:25:36;;;;;;;75.00;58.97;;;;;;;;;;5056137;28;20463;-87
2020/12/02 12:28:05;;;;;;;78.53;61.25;;;;;;;;;;5059362;28;20390;-90
2020/12/02 12:30:34;;;;;;;80.28;62.65;;;;;;;;;;5074737;28;20401;-89
2020/12/02 12:33:22;;;;;;;84.55;65.85;;;;;;;;;;5056841;28;20364;-88
2020/12/02 12:35:55;;;;;;;81.93;64.30;;;;;;;;;;5040888;28;20932;-89
2020/12/02 12:38:41;;;;;;;81.88;64.53;;;;;;;;;;5077976;28;20350;-92
2020/12/02 12:41:20;;;;;;;81.47;62.80;;;;;;;;;;5037849;28;20404;-89
2020/12/02 12:44:06;;;;;;;83.87;64.80;;;;;;;;;;5055602;28;20455;-91
2020/12/02 12:46:51;;;;;;;81.88;63.38;;;;;;;;;;5049628;28;20760;-90
2020/12/02 12:49:20;;;;;;;79.85;62.95;;;;;;;;;;5074807;28;20378;-86
2020/12/02 12:51:47;;;;;;;82.15;62.03;;;;;;;;;;5057807;28;20390;-86
2020/12/02 12:54:19;;;;;;;78.38;61.38;;;;;;;;;;5052047;28;20694;-87
2020/12/02 12:56:45;;;;;;;77.70;63.50;;;;;;;;;;5057491;28;20378;-89
2020/12/02 12:59:14;;;;;;;76.63;61.30;;;;;;;;;;5055424;28;20457;-86
2020/12/02 13:01:40;;;;;;;82.45;64.28;;;;;;;;;;5055171;28;20398;-87
2020/12/02 13:04:11;;;;;;;76.40;60.13;;;;;;;;;;5073335;28;20374;-84
2020/12/02 13:06:45;;;;;;;76.50;60.35;;;;;;;;;;5075460;28;20401;-86
2020/12/02 13:09:17;;;;;;;80.10;60.83;;;;;;;;;;5073903;28;20400;-86
2020/12/02 13:12:02;;;;;;;74.35;60.10;;;;;;;;;;5071077;28;20366;-88
2020/12/02 13:14:40;;;;;;;72.75;56.55;;;;;;;;;;5055013;28;20367;-88
2020/12/02 13:17:15;;;;;;;70.07;55.80;;;;;;;;;;5073478;28;20834;-85
2020/12/02 13:19:42;;;;;;;72.65;57.30;;;;;;;;;;5072633;28;20404;-88
2020/12/02 13:22:18;;;;;;;71.38;55.03;;;;;;;;;;5038025;28;20430;-88
2020/12/02 13:25:03;;;;;;;69.00;55.25;;;;;;;;;;5070861;28;20397;-90
2020/12/02 13:27:35;;;;;;;68.63;54.78;;;;;;;;;;5068363;28;20366;-87
2020/12/02 13:30:07;;;;;;;64.28;52.40;;;;;;;;;;5055318;28;20382;-89
2020/12/02 13:32:42;;;;;;;61.92;50.28;;;;;;;;;;5058660;28;20466;-91
2020/12/02 13:35:09;;;;;;;64.43;51.55;;;;;;;;;;5066954;28;20364;-87
2020/12/02 13:37:37;;;;;;;65.18;52.03;;;;;;;;;;5067580;28;20384;-89
2020/12/02 13:40:04;;;;;;;67.00;54.10;;;;;;;;;;5049626;28;20372;-88
2020/12/02 13:42:39;;;;;;;60.80;50.90;;;;;;;;;;5075289;28;20490;-88
2020/12/02 13:45:17;;;;;;;61.08;48.80;;;;;;;;;;5052995;28;20371;-88
2020/12/02 13:47:47;;;;;;;55.00;45.90;;;;;;;;;;5038988;28;20487;-87
2020/12/02 13:50:15;;;;;;;52.30;43.67;;;;;;;;;;5062498;28;20403;-87
2020/12/02 13:53:00;;;;;;;53.10;44.35;;;;;;;;;;5059504;28;20363;-87
2020/12/02 13:58:42;;;;;;;52.15;41.80;;;;;;;;;;5062719;28;20428;-92
2020/12/02 14:01:38;;;;;;;47.23;39.70;;;;;;;;;;5061623;28;20837;-89
2020/12/02 14:04:23;;;;;;;47.85;40.60;;;;;;;;;;5053184;28;20374;-89
2020/12/02 14:06:58;;;;;;;51.10;40.88;;;;;;;;;;5071677;28;20981;-85
2020/12/02 14:09:27;;;;;;;50.85;41.75;;;;;;;;;;5043034;28;20372;-86
2020/12/02 14:11:55;;;;;;;49.45;41.83;;;;;;;;;;5052913;28;20360;-86
2020/12/02 14:14:41;;;;;;;47.60;39.50;;;;;;;;;;5054617;28;20443;-84
2020/12/02 14:17:09;;;;;;;47.30;38.35;;;;;;;;;;5054028;28;20364;-87
2020/12/02 14:19:38;;;;;;;49.90;41.13;;;;;;;;;;5062645;28;20385;-86
2020/12/02 14:22:13;;;;;;;47.03;39.22;;;;;;;;;;5054899;28;20394;-87
2020/12/02 14:24:50;;;;;;;49.47;40.63;;;;;;;;;;5065421;28;20405;-85
2020/12/02 14:27:36;;;;;;;49.80;39.63;;;;;;;;;;5078879;28;20782;-86
2020/12/02 14:30:07;;;;;;;47.15;39.55;;;;;;;;;;5076762;28;20413;-87
2020/12/02 14:32:33;;;;;;;48.03;39.87;;;;;;;;;;5052572;28;20400;-86
2020/12/02 14:35:02;;;;;;;47.05;38.80;;;;;;;;;;5068306;28;20821;-86
2020/12/02 14:37:28;;;;;;;50.78;41.50;;;;;;;;;;5077610;28;20358;-88
2020/12/02 14:39:54;;;;;;;51.13;41.87;;;;;;;;;;5041371;28;20390;-87
2020/12/02 14:42:20;;;;;;;51.20;42.13;;;;;;;;;;5054306;28;20416;-87
2020/12/02 14:44:51;;;;;;;51.53;42.88;;;;;;;;;;5071662;28;20365;-86
2020/12/02 14:47:17;;;;;;;49.65;42.30;;;;;;;;;;5072011;28;20380;-86